Granada

Airport
ICAO code: 
LEGR
Summary
ICAO Region: 
EUR
Territory: 
Location: 
Granada, Spain,
Coordinates: 
Aerial View: 
37° 11' 18" N, 3° 46' 36" W
Airport WX: 
Fog
Metar
Observation
LEGR 170430Z AUTO 00000KT CAVOK M03/M03 Q1030
Station
Granada / Aeropuerto
Date/Time
2022-01-17 04:30:00
Wind direction
Wind speed
00 kts
Lowest cloud amount
clouds and visibility OK
Temperature
-3°C
Dew point
-3°C
Humidity
100%
QNH
1030 hPa
Weather condition
n/a

Description

International airport serving Spanish city of Granada.

Climatology

Dry-summer subtropical ”Mediterranean" climate (Köppen climate classification Csa) - characterized by hot, dry summers and mild winters. During the summer, subtropical high pressure cells dominate, making rainfall unlikely except for the occasional thunderstorm. In the winter, periodic storms bring rain (snow at higher elevations).

Runways

Designator Length Width Surface Rops
9/27 2900 45 ASP Yes/Yes
Airport map: 
Aerial View: 

SKYbrary Partners:

Safety knowledge contributed by: